Time;durP1;ratioP1;P1;durP2;ratioP2;P2;SDS_P1;SDS_P2;PMS_P1;PMS_P2;Temp;Humidity;BMP_temperature;BMP_pressure;BME280_temperature;BME280_humidity;BME280_pressure;Samples;Min_cycle;Max_cycle;Signal;HPM_P1;HPM_P2
2021/06/26 00:04:56;;;;;;;8.60;7.70;;;19.00;99.90;;;;;;10542924;28;20319;-81
2021/06/26 00:09:59;;;;;;;7.80;7.13;;;19.00;99.90;;;;;;10530341;28;20207;-78
2021/06/26 00:15:02;;;;;;;8.90;8.07;;;19.00;99.90;;;;;;10562850;28;20632;-79
2021/06/26 00:20:06;;;;;;;8.80;7.20;;;19.00;99.90;;;;;;10542282;28;20226;-77
2021/06/26 00:25:09;;;;;;;8.43;7.57;;;19.00;99.90;;;;;;10560241;28;20278;-78
2021/06/26 00:30:14;;;;;;;8.67;7.87;;;19.00;99.90;;;;;;10560849;28;20219;-79
2021/06/26 00:35:16;;;;;;;9.37;8.63;;;19.00;99.90;;;;;;10558169;28;20306;-80
2021/06/26 00:40:19;;;;;;;8.17;7.57;;;19.00;99.90;;;;;;10563778;28;20179;-77
2021/06/26 00:45:22;;;;;;;8.20;7.60;;;19.00;99.90;;;;;;10527631;28;20234;-79
2021/06/26 00:50:30;;;;;;;8.30;7.57;;;19.00;99.90;;;;;;10547991;28;20211;-79
2021/06/26 00:55:32;;;;;;;8.33;7.73;;;19.00;99.90;;;;;;10559983;28;20235;-77
2021/06/26 01:00:36;;;;;;;10.20;7.80;;;18.90;99.90;;;;;;10559128;28;20580;-78
2021/06/26 01:05:38;;;;;;;8.40;7.80;;;18.80;99.90;;;;;;10555987;28;20211;-81
2021/06/26 01:10:40;;;;;;;8.53;7.80;;;18.80;99.90;;;;;;10544599;28;20763;-79
2021/06/26 01:15:44;;;;;;;7.73;7.13;;;18.80;99.90;;;;;;10561404;28;20233;-78
2021/06/26 01:20:46;;;;;;;8.50;7.80;;;18.80;99.90;;;;;;10545359;28;20183;-77
2021/06/26 01:25:50;;;;;;;8.73;7.97;;;18.70;99.90;;;;;;10564485;28;20242;-79
2021/06/26 01:30:52;;;;;;;8.70;7.80;;;18.70;99.90;;;;;;10545222;28;20216;-80
2021/06/26 01:35:54;;;;;;;8.10;7.50;;;18.70;99.90;;;;;;10567118;28;20674;-79
2021/06/26 01:40:57;;;;;;;8.50;7.80;;;18.70;99.90;;;;;;10554424;28;20187;-79
2021/06/26 01:45:59;;;;;;;9.60;8.80;;;18.80;99.90;;;;;;10568375;28;20222;-78
2021/06/26 01:51:01;;;;;;;8.23;7.63;;;18.70;99.90;;;;;;10569664;28;20307;-79
2021/06/26 01:56:06;;;;;;;9.30;8.50;;;18.70;99.90;;;;;;10550061;28;20223;-77
2021/06/26 02:01:08;;;;;;;9.27;8.50;;;18.80;99.90;;;;;;10570507;28;20245;-78
2021/06/26 02:06:10;;;;;;;9.70;8.70;;;18.80;99.90;;;;;;10561434;28;20223;-79
2021/06/26 02:11:13;;;;;;;8.50;7.83;;;18.70;99.90;;;;;;10567282;28;20231;-79
2021/06/26 02:16:15;;;;;;;10.07;9.27;;;18.70;99.90;;;;;;10566859;28;20295;-78
2021/06/26 02:21:18;;;;;;;10.90;10.00;;;18.80;99.90;;;;;;10563919;28;20188;-79
2021/06/26 02:26:21;;;;;;;11.00;10.10;;;18.80;99.90;;;;;;10574308;28;20220;-79
2021/06/26 02:31:23;;;;;;;12.50;11.47;;;18.80;99.90;;;;;;10587702;28;20218;-77
2021/06/26 02:36:25;;;;;;;9.60;8.80;;;18.80;99.90;;;;;;10577097;28;20628;-80
2021/06/26 02:41:29;;;;;;;10.00;9.20;;;18.80;99.90;;;;;;10584451;28;20187;-78
2021/06/26 02:46:31;;;;;;;10.50;9.70;;;18.80;99.90;;;;;;10551595;28;20240;-79
2021/06/26 02:51:33;;;;;;;11.30;10.20;;;18.80;99.90;;;;;;10535019;28;20251;-77
2021/06/26 02:56:37;;;;;;;11.40;10.40;;;18.80;99.90;;;;;;10535519;28;20247;-79
2021/06/26 03:01:39;;;;;;;12.20;11.10;;;18.80;99.90;;;;;;10550788;28;20275;-79
2021/06/26 03:06:41;;;;;;;9.57;8.80;;;18.70;99.90;;;;;;10543844;28;20223;-78
2021/06/26 03:11:44;;;;;;;12.43;11.13;;;18.70;99.90;;;;;;10557614;28;20245;-78
2021/06/26 03:16:46;;;;;;;11.77;10.70;;;18.60;99.90;;;;;;10564710;28;20321;-79
2021/06/26 03:21:49;;;;;;;13.40;12.20;;;18.60;99.90;;;;;;10542527;28;20279;-79
2021/06/26 03:26:52;;;;;;;12.63;11.27;;;18.60;99.90;;;;;;10588656;28;20206;-78
2021/06/26 03:31:54;;;;;;;12.03;11.03;;;18.50;99.90;;;;;;10547845;28;20241;-78
2021/06/26 03:36:56;;;;;;;13.90;12.70;;;18.40;99.90;;;;;;10534496;28;20253;-77
2021/06/26 03:42:00;;;;;;;13.53;12.23;;;18.40;99.90;;;;;;10552317;28;20195;-78
2021/06/26 03:47:02;;;;;;;14.47;13.17;;;18.30;99.90;;;;;;10571426;28;20278;-79
2021/06/26 03:52:05;;;;;;;14.73;13.43;;;18.10;99.90;;;;;;10545908;28;20774;-77
2021/06/26 03:57:09;;;;;;;15.30;13.90;;;18.00;99.90;;;;;;10561031;28;20226;-79
2021/06/26 04:02:11;;;;;;;15.90;14.60;;;18.00;99.90;;;;;;10580149;28;20238;-78
2021/06/26 04:07:14;;;;;;;14.50;13.27;;;18.00;99.90;;;;;;10508859;28;20204;-77
2021/06/26 04:12:17;;;;;;;16.10;14.70;;;17.90;99.90;;;;;;10550646;28;20268;-79
2021/06/26 04:17:19;;;;;;;15.50;14.03;;;17.90;99.90;;;;;;10550105;28;20200;-79
2021/06/26 04:22:21;;;;;;;15.10;13.70;;;17.90;99.90;;;;;;10538130;28;20226;-78
2021/06/26 04:27:25;;;;;;;14.93;13.43;;;17.90;99.90;;;;;;10557083;28;20199;-78
2021/06/26 04:32:27;;;;;;;14.90;13.70;;;18.00;99.90;;;;;;10553474;28;20231;-77
2021/06/26 04:37:29;;;;;;;14.73;13.30;;;18.00;99.90;;;;;;10546131;28;20203;-79
2021/06/26 04:42:33;;;;;;;16.43;13.07;;;18.10;99.90;;;;;;10577452;28;20301;-78
2021/06/26 04:47:35;;;;;;;14.40;13.20;;;18.20;99.90;;;;;;10580989;28;20199;-79
2021/06/26 04:52:40;;;;;;;15.80;14.40;;;18.20;99.90;;;;;;10562984;28;20215;-79
2021/06/26 04:57:44;;;;;;;14.13;12.63;;;18.30;99.90;;;;;;10583697;28;20566;-78
2021/06/26 05:02:46;;;;;;;15.30;13.80;;;18.40;99.90;;;;;;10565182;28;20279;-78
2021/06/26 05:07:48;;;;;;;14.03;12.93;;;18.40;99.90;;;;;;10585698;28;20725;-79
2021/06/26 05:12:51;;;;;;;17.47;15.87;;;18.50;99.90;;;;;;10569089;28;20234;-78
2021/06/26 05:17:53;;;;;;;15.23;13.93;;;18.60;99.90;;;;;;10590550;28;20222;-78
2021/06/26 05:22:56;;;;;;;16.67;15.17;;;18.60;99.90;;;;;;10572925;28;20215;-78
2021/06/26 05:28:00;;;;;;;15.80;14.40;;;18.70;99.90;;;;;;10583337;28;20195;-79
2021/06/26 05:33:02;;;;;;;15.03;13.67;;;18.80;99.90;;;;;;10567153;28;20308;-78
2021/06/26 05:38:04;;;;;;;16.17;14.77;;;18.90;99.90;;;;;;10589987;28;20258;-77
2021/06/26 05:43:08;;;;;;;16.73;15.20;;;19.00;99.90;;;;;;10587636;28;20302;-78
2021/06/26 05:48:10;;;;;;;16.63;15.00;;;19.10;99.90;;;;;;10570856;28;20238;-78
2021/06/26 05:53:12;;;;;;;16.50;15.10;;;19.30;99.90;;;;;;10570286;28;20222;-78
2021/06/26 05:58:16;;;;;;;18.07;16.47;;;19.30;99.90;;;;;;10588197;28;20252;-78
2021/06/26 06:03:18;;;;;;;18.43;16.73;;;19.40;99.90;;;;;;10587812;28;20766;-79
2021/06/26 06:08:20;;;;;;;18.73;16.60;;;19.70;99.90;;;;;;10567866;28;20203;-78
2021/06/26 06:13:24;;;;;;;18.30;16.70;;;19.90;99.90;;;;;;10572854;28;20223;-78
2021/06/26 06:18:26;;;;;;;17.40;15.90;;;20.20;99.90;;;;;;10586685;28;20223;-79
2021/06/26 06:23:28;;;;;;;17.03;14.93;;;20.50;99.90;;;;;;10570290;28;20240;-78
2021/06/26 06:28:31;;;;;;;16.27;14.77;;;20.80;99.90;;;;;;10572069;28;20228;-79
2021/06/26 06:33:33;;;;;;;17.17;15.67;;;21.10;99.90;;;;;;10586558;28;20244;-77
2021/06/26 06:38:36;;;;;;;16.73;15.23;;;21.40;99.90;;;;;;10589720;28;20229;-78
2021/06/26 06:43:40;;;;;;;16.47;14.90;;;21.50;99.90;;;;;;10588991;28;20628;-78
2021/06/26 06:48:42;;;;;;;15.80;14.40;;;21.70;99.90;;;;;;10587641;28;20419;-78
2021/06/26 06:53:44;;;;;;;15.53;14.07;;;22.00;99.90;;;;;;10587667;28;20227;-78
2021/06/26 06:58:47;;;;;;;15.50;14.10;;;22.30;99.90;;;;;;10588286;28;20270;-78
2021/06/26 07:03:49;;;;;;;16.13;14.67;;;22.60;99.90;;;;;;10589575;28;20211;-78
2021/06/26 07:08:51;;;;;;;15.57;14.20;;;22.90;99.90;;;;;;10589535;28;20199;-78
2021/06/26 07:13:55;;;;;;;14.53;13.13;;;23.10;99.90;;;;;;10584265;28;20272;-79
2021/06/26 07:18:57;;;;;;;14.20;12.90;;;23.20;99.90;;;;;;10569217;28;20210;-79
2021/06/26 07:23:59;;;;;;;15.23;13.80;;;23.40;99.90;;;;;;10568645;28;20248;-79
2021/06/26 07:29:03;;;;;;;13.57;12.27;;;23.70;99.90;;;;;;10579438;28;20210;-79
2021/06/26 07:34:05;;;;;;;13.70;12.40;;;24.00;99.90;;;;;;10588063;28;20310;-79
2021/06/26 07:39:07;;;;;;;15.27;13.83;;;24.40;99.90;;;;;;10574611;28;20194;-79
2021/06/26 07:44:11;;;;;;;14.73;13.40;;;24.60;99.90;;;;;;10575734;28;20219;-79
2021/06/26 07:49:13;;;;;;;13.60;12.40;;;24.90;99.90;;;;;;10579399;28;20202;-79
2021/06/26 08:04:50;;;;;;;8.63;7.90;;;25.90;99.90;;;;;;5778809;25;20241;-79
2021/06/26 08:09:52;;;;;;;9.67;8.77;;;26.40;99.90;;;;;;10589485;28;20221;-79
2021/06/26 08:14:54;;;;;;;11.73;9.00;;;26.40;99.90;;;;;;10607588;27;20774;-79
2021/06/26 08:19:58;;;;;;;8.77;8.17;;;26.80;99.00;;;;;;10612787;27;20198;-79
2021/06/26 08:25:00;;;;;;;9.27;8.47;;;27.10;98.60;;;;;;10611719;27;20246;-79
2021/06/26 08:30:02;;;;;;;10.20;9.30;;;27.30;98.70;;;;;;10628625;27;20268;-79
2021/06/26 08:35:08;;;;;;;8.40;7.70;;;27.50;96.30;;;;;;10623189;27;20233;-79
2021/06/26 08:40:11;;;;;;;7.87;7.20;;;27.80;96.90;;;;;;10593218;27;20217;-79
2021/06/26 08:45:16;;;;;;;7.43;6.93;;;28.30;94.70;;;;;;10618535;27;20218;-79
2021/06/26 08:50:22;;;;;;;7.97;7.33;;;28.80;91.60;;;;;;10604620;27;20207;-79
2021/06/26 08:55:26;;;;;;;7.67;7.17;;;29.00;91.50;;;;;;10587242;27;20217;-79
2021/06/26 09:00:28;;;;;;;8.60;8.00;;;29.30;89.00;;;;;;10621290;27;20655;-80
2021/06/26 09:05:32;;;;;;;7.37;6.87;;;29.40;85.90;;;;;;10621761;27;20226;-80
2021/06/26 09:10:34;;;;;;;8.17;7.57;;;29.10;87.80;;;;;;10622980;27;20210;-79
2021/06/26 09:15:37;;;;;;;6.07;5.67;;;28.70;84.00;;;;;;10600674;27;20621;-79
2021/06/26 09:20:41;;;;;;;9.27;8.37;;;28.90;84.80;;;;;;10620046;27;20290;-80
2021/06/26 09:25:43;;;;;;;8.30;7.70;;;29.30;79.20;;;;;;10585518;27;20219;-80
2021/06/26 09:30:45;;;;;;;7.00;6.40;;;29.30;82.90;;;;;;10589780;28;20219;-79
2021/06/26 09:36:03;;;;;;;6.23;5.83;;;29.60;78.80;;;;;;10611923;27;20248;-80
2021/06/26 09:41:16;;;;;;;6.63;6.13;;;29.80;74.40;;;;;;10610530;27;20190;-79
2021/06/26 09:46:20;;;;;;;5.93;5.50;;;30.60;73.50;;;;;;10609933;27;20221;-80
2021/06/26 09:51:26;;;;;;;7.67;7.07;;;31.10;75.80;;;;;;10617765;27;20242;-80
2021/06/26 09:56:43;;;;;;;7.80;7.10;;;31.80;72.50;;;;;;10630369;27;20244;-79
2021/06/26 10:01:46;;;;;;;6.67;6.23;;;33.10;68.10;;;;;;10616285;27;20190;-79
2021/06/26 10:06:51;;;;;;;5.70;5.30;;;34.60;61.50;;;;;;10622486;27;20217;-79
2021/06/26 10:11:53;;;;;;;5.90;5.53;;;35.80;58.40;;;;;;10622258;27;20219;-80
2021/06/26 10:16:57;;;;;;;5.43;5.13;;;37.40;55.40;;;;;;10600673;27;20212;-80
2021/06/26 10:22:00;;;;;;;7.33;6.83;;;36.60;53.60;;;;;;10600084;27;20201;-80
2021/06/26 10:27:03;;;;;;;6.40;5.90;;;35.80;51.70;;;;;;10619451;27;20199;-80
2021/06/26 10:32:10;;;;;;;5.93;5.53;;;34.20;55.50;;;;;;10621613;27;20211;-80
2021/06/26 10:37:18;;;;;;;7.00;6.50;;;32.50;59.50;;;;;;10623232;27;20225;-79
2021/06/26 10:42:20;;;;;;;6.97;6.47;;;31.10;59.00;;;;;;10624093;27;20233;-80
2021/06/26 10:47:35;;;;;;;6.57;6.07;;;30.00;59.00;;;;;;10618333;27;20286;-79
2021/06/26 10:52:48;;;;;;;6.97;6.37;;;29.00;61.90;;;;;;10615763;27;20223;-79
2021/06/26 10:57:50;;;;;;;6.70;6.30;;;28.10;65.40;;;;;;10615649;27;20560;-79
2021/06/26 11:02:52;;;;;;;6.53;6.03;;;27.60;67.40;;;;;;10601777;27;20566;-80
2021/06/26 11:07:56;;;;;;;7.17;6.60;;;27.60;66.70;;;;;;10593254;27;20201;-80
2021/06/26 11:12:58;;;;;;;7.10;6.60;;;27.50;70.40;;;;;;10612368;27;20219;-80
2021/06/26 11:18:00;;;;;;;8.23;7.60;;;27.30;71.70;;;;;;10595123;27;20197;-80
2021/06/26 11:23:03;;;;;;;8.00;7.37;;;27.00;72.30;;;;;;10602881;27;20249;-79
2021/06/26 11:28:06;;;;;;;7.40;6.90;;;27.00;71.50;;;;;;10568971;28;20282;-80
2021/06/26 11:33:08;;;;;;;7.50;7.00;;;27.00;70.60;;;;;;10567094;27;20229;-81
2021/06/26 11:38:17;;;;;;;7.50;7.00;;;26.90;70.40;;;;;;10599967;27;20205;-80
2021/06/26 11:43:20;;;;;;;7.07;6.57;;;26.70;70.70;;;;;;10583175;27;20267;-80
2021/06/26 11:48:22;;;;;;;7.63;7.10;;;26.60;73.30;;;;;;10600607;27;20511;-79
2021/06/26 11:54:18;;;;;;;7.57;7.00;;;26.60;72.90;;;;;;10603166;27;20309;-79
2021/06/26 11:59:22;;;;;;;6.80;6.30;;;26.70;74.20;;;;;;10593032;27;20286;-79
2021/06/26 12:04:29;;;;;;;6.80;6.30;;;26.70;72.30;;;;;;10603970;27;20225;-80
2021/06/26 12:09:33;;;;;;;6.83;6.33;;;26.60;73.30;;;;;;10606602;27;20195;-79
2021/06/26 12:14:35;;;;;;;6.53;6.13;;;26.40;73.50;;;;;;10585277;27;20226;-80
2021/06/26 12:19:38;;;;;;;7.40;6.80;;;26.30;75.10;;;;;;10582265;28;20630;-80
2021/06/26 12:24:43;;;;;;;6.50;6.00;;;26.30;74.40;;;;;;10590173;28;20594;-79
2021/06/26 12:29:54;;;;;;;7.00;6.50;;;26.30;74.70;;;;;;10587377;27;20195;-79
2021/06/26 12:34:57;;;;;;;6.90;6.50;;;26.40;69.60;;;;;;10583330;28;20223;-80
2021/06/26 12:40:10;;;;;;;6.43;5.97;;;26.30;70.10;;;;;;10583424;28;20243;-79
2021/06/26 12:45:14;;;;;;;7.10;6.50;;;26.20;74.60;;;;;;10603914;28;20752;-80
2021/06/26 12:50:16;;;;;;;5.97;5.57;;;26.00;72.00;;;;;;10583477;28;20301;-80
2021/06/26 12:55:21;;;;;;;6.17;5.77;;;26.00;74.80;;;;;;10625561;28;20214;-80
2021/06/26 13:00:24;;;;;;;6.60;6.07;;;26.00;69.00;;;;;;10627034;28;20216;-79
2021/06/26 13:05:27;;;;;;;6.03;5.63;;;26.00;75.40;;;;;;10609747;28;20233;-79
2021/06/26 13:10:31;;;;;;;5.70;5.30;;;26.10;69.70;;;;;;10626864;28;20598;-79
2021/06/26 13:15:33;;;;;;;5.67;5.20;;;26.20;71.70;;;;;;10562429;28;20219;-79
2021/06/26 13:20:35;;;;;;;5.37;4.97;;;26.10;70.90;;;;;;10582665;28;20230;-79
2021/06/26 13:25:38;;;;;;;4.93;4.63;;;26.20;74.20;;;;;;10623647;28;20409;-80
2021/06/26 13:30:41;;;;;;;5.20;4.70;;;26.10;72.80;;;;;;10610883;27;20215;-80
2021/06/26 13:35:43;;;;;;;5.23;4.93;;;26.20;68.90;;;;;;10633012;27;20250;-79
2021/06/26 13:40:50;;;;;;;5.10;4.70;;;26.20;72.80;;;;;;10618873;27;20199;-79
2021/06/26 13:45:52;;;;;;;5.70;5.23;;;26.10;70.80;;;;;;10592975;27;20242;-80
2021/06/26 13:50:54;;;;;;;5.43;5.03;;;26.10;73.90;;;;;;10614119;27;20302;-80
2021/06/26 13:55:58;;;;;;;7.13;6.43;;;26.20;75.20;;;;;;10614284;27;20214;-79
2021/06/26 14:01:00;;;;;;;6.93;6.43;;;26.20;73.10;;;;;;10632237;27;20574;-79
2021/06/26 14:06:02;;;;;;;6.30;5.90;;;26.30;74.50;;;;;;10614151;27;20297;-79
2021/06/26 14:11:05;;;;;;;6.50;6.00;;;26.40;69.60;;;;;;10632663;27;20206;-80
2021/06/26 14:16:08;;;;;;;6.37;5.87;;;26.40;70.80;;;;;;10598475;27;20306;-79
2021/06/26 14:21:11;;;;;;;6.60;6.03;;;26.30;70.30;;;;;;10588526;28;20202;-79
2021/06/26 14:26:16;;;;;;;6.63;6.13;;;26.20;72.80;;;;;;10587921;28;20218;-79
2021/06/26 14:31:19;;;;;;;5.70;5.20;;;26.20;70.60;;;;;;10589295;28;20237;-79
2021/06/26 14:36:21;;;;;;;5.70;5.30;;;26.00;72.00;;;;;;10587830;28;20251;-79
2021/06/26 14:41:24;;;;;;;5.97;5.57;;;25.80;75.90;;;;;;10569659;28;20199;-79
2021/06/26 14:46:26;;;;;;;5.30;4.90;;;25.70;70.70;;;;;;10582937;27;20218;-79
2021/06/26 14:51:29;;;;;;;6.37;5.87;;;25.70;73.40;;;;;;10612522;27;20214;-79
2021/06/26 14:56:32;;;;;;;5.67;5.27;;;25.70;75.10;;;;;;10630756;27;20218;-80
2021/06/26 15:01:34;;;;;;;5.33;4.93;;;25.70;72.60;;;;;;10628971;27;20199;-80
2021/06/26 15:06:36;;;;;;;5.30;4.80;;;25.60;75.60;;;;;;10629661;27;20233;-80
2021/06/26 15:53:38;;;;;;;6.20;5.77;;;25.90;76.20;;;;;;10640485;22;20319;-79
2021/06/26 15:58:40;;;;;;;6.07;5.60;;;25.90;73.40;;;;;;10485380;28;20285;-79
2021/06/26 16:03:43;;;;;;;6.00;5.60;;;25.90;75.70;;;;;;10486852;28;20212;-79
2021/06/26 16:08:47;;;;;;;5.80;5.40;;;26.00;75.60;;;;;;10492916;28;20188;-79
2021/06/26 16:13:51;;;;;;;5.93;5.13;;;26.00;74.90;;;;;;10495059;28;20721;-79
2021/06/26 16:18:54;;;;;;;6.00;5.60;;;26.00;77.60;;;;;;10495453;28;20193;-78
2021/06/26 16:23:57;;;;;;;7.67;7.03;;;25.90;73.00;;;;;;10495694;28;20303;-79
2021/06/26 16:28:59;;;;;;;7.57;5.20;;;25.60;74.00;;;;;;10498454;28;20614;-79
2021/06/26 16:34:02;;;;;;;5.27;4.97;;;25.40;77.40;;;;;;10496606;28;20232;-79
2021/06/26 16:39:07;;;;;;;8.60;7.90;;;25.10;82.10;;;;;;10497078;28;20222;-78
2021/06/26 16:44:09;;;;;;;8.53;7.83;;;24.90;83.80;;;;;;10495867;28;20233;-79
2021/06/26 16:49:12;;;;;;;39.50;34.40;;;24.70;82.80;;;;;;10494916;28;20196;-79
2021/06/26 16:54:15;;;;;;;6.60;6.10;;;24.50;81.70;;;;;;10477842;28;20248;-79
2021/06/26 16:59:17;;;;;;;6.20;5.63;;;24.40;83.10;;;;;;10494892;28;20239;-79
2021/06/26 17:04:19;;;;;;;6.50;6.10;;;24.40;84.10;;;;;;10498642;28;20715;-79
2021/06/26 17:09:23;;;;;;;6.53;6.03;;;24.20;85.80;;;;;;10503056;28;20562;-79
2021/06/26 17:14:25;;;;;;;6.70;5.97;;;24.10;86.90;;;;;;10506378;28;20224;-81
2021/06/26 17:19:27;;;;;;;5.87;5.47;;;24.10;86.40;;;;;;10523946;28;20197;-79
2021/06/26 17:24:31;;;;;;;6.97;6.47;;;24.10;87.20;;;;;;10505566;28;20220;-80
2021/06/26 17:29:33;;;;;;;7.43;6.93;;;24.10;90.00;;;;;;10507110;28;20201;-80
2021/06/26 17:34:35;;;;;;;8.17;7.57;;;24.10;91.40;;;;;;10506281;28;20242;-81
2021/06/26 17:39:39;;;;;;;7.90;7.30;;;24.10;84.70;;;;;;10504128;28;20207;-81
2021/06/26 17:44:41;;;;;;;6.90;6.43;;;24.10;88.50;;;;;;10506399;28;20216;-81
2021/06/26 17:49:43;;;;;;;7.63;7.13;;;24.00;87.40;;;;;;10504623;28;20260;-81
2021/06/26 17:54:46;;;;;;;7.90;7.30;;;24.00;91.60;;;;;;10506264;28;20224;-81
2021/06/26 17:59:48;;;;;;;8.07;6.77;;;23.90;90.90;;;;;;10505748;28;20653;-81
2021/06/26 18:04:53;;;;;;;7.83;7.23;;;23.90;91.20;;;;;;10503965;28;20251;-81
2021/06/26 18:10:01;;;;;;;10.40;9.60;;;23.90;90.50;;;;;;10496108;28;20268;-79
2021/06/26 18:15:04;;;;;;;8.30;7.70;;;23.90;90.20;;;;;;10504783;28;20662;-81
2021/06/26 18:20:09;;;;;;;8.20;7.60;;;23.90;89.10;;;;;;10503342;28;20287;-81
2021/06/26 18:37:26;;;;;;;8.67;7.87;;;23.90;89.20;;;;;;8600916;26;20222;-81
2021/06/26 18:42:28;;;;;;;7.97;7.37;;;23.90;91.40;;;;;;10474167;22;20228;-80
2021/06/26 18:47:30;;;;;;;9.73;8.80;;;23.80;91.80;;;;;;10543560;28;20224;-80
2021/06/26 18:52:34;;;;;;;8.87;8.17;;;23.70;92.10;;;;;;10543988;28;20739;-81
2021/06/26 18:57:37;;;;;;;9.00;8.40;;;23.50;92.60;;;;;;10544775;28;20261;-81
2021/06/26 19:02:41;;;;;;;8.47;7.87;;;23.50;93.00;;;;;;10547670;28;20216;-81
2021/06/26 19:07:45;;;;;;;10.03;9.13;;;23.30;93.80;;;;;;10544727;28;20199;-80
2021/06/26 19:12:48;;;;;;;9.03;8.33;;;23.20;93.90;;;;;;10538796;28;20236;-81
2021/06/26 19:17:52;;;;;;;9.50;8.70;;;23.10;94.70;;;;;;10540631;28;20207;-80
2021/06/26 19:28:13;;;;;;;9.57;8.87;;;22.90;95.10;;;;;;6200193;22;20291;-80
2021/06/26 19:43:50;;;;;;;8.50;7.80;;;22.50;95.30;;;;;;10569578;22;20402;-80
2021/06/26 19:48:52;;;;;;;9.07;8.27;;;22.40;95.70;;;;;;10541623;28;20257;-79
2021/06/26 19:53:54;;;;;;;9.63;8.93;;;22.30;96.10;;;;;;10545664;28;20770;-80
2021/06/26 19:58:58;;;;;;;9.43;8.67;;;22.20;96.60;;;;;;10538369;28;20203;-80
2021/06/26 20:31:56;;;;;;;13.20;12.00;;;21.80;98.30;;;;;;10814024;22;20231;-80
2021/06/26 20:36:59;;;;;;;11.83;10.53;;;21.70;98.50;;;;;;10497427;28;20681;-80
2021/06/26 20:42:01;;;;;;;11.47;10.43;;;21.70;99.20;;;;;;10499829;28;20211;-82
2021/06/26 20:47:04;;;;;;;12.10;10.03;;;21.60;99.70;;;;;;10497725;28;20275;-80
2021/06/26 20:52:07;;;;;;;12.03;9.57;;;21.60;99.70;;;;;;10497919;28;20216;-80
2021/06/26 20:57:09;;;;;;;10.67;9.77;;;21.60;99.40;;;;;;10497727;28;20200;-80
2021/06/26 21:02:12;;;;;;;10.07;9.23;;;21.50;99.80;;;;;;10509731;28;20205;-79
2021/06/26 21:07:15;;;;;;;10.47;9.57;;;21.50;99.70;;;;;;10479793;28;20212;-79
2021/06/26 21:12:17;;;;;;;11.17;10.20;;;21.40;99.90;;;;;;10498097;28;20236;-80
2021/06/26 21:17:21;;;;;;;11.70;10.80;;;21.40;99.90;;;;;;10495953;28;20649;-80
2021/06/26 21:43:54;;;;;;;11.80;10.80;;;21.20;99.90;;;;;;10542852;28;20223;-81
2021/06/26 21:48:56;;;;;;;11.00;10.10;;;21.10;99.90;;;;;;10535878;28;20215;-80
2021/06/26 22:12:30;;;;;;;10.93;10.07;;;20.80;99.90;;;;;;10555919;28;20229;-81
2021/06/26 22:17:33;;;;;;;11.60;10.53;;;20.70;99.90;;;;;;10546589;28;20211;-80
2021/06/26 22:22:37;;;;;;;10.43;9.57;;;20.70;99.90;;;;;;10546389;28;20699;-80
2021/06/26 22:27:42;;;;;;;10.03;9.33;;;20.70;99.90;;;;;;10553288;28;20556;-81
2021/06/26 22:32:45;;;;;;;9.47;8.67;;;20.70;99.90;;;;;;10551373;28;20760;-81
2021/06/26 22:37:48;;;;;;;10.10;9.40;;;20.70;99.90;;;;;;10550980;28;20233;-79
2021/06/26 22:42:53;;;;;;;9.70;9.00;;;20.60;99.90;;;;;;10546753;28;20243;-81
2021/06/26 22:47:55;;;;;;;9.80;9.00;;;20.60;99.90;;;;;;10544552;28;20200;-79
2021/06/26 22:52:58;;;;;;;9.63;8.73;;;20.50;99.90;;;;;;10561227;28;20243;-78
2021/06/26 22:58:05;;;;;;;10.80;9.83;;;20.50;99.90;;;;;;10540619;28;20279;-80
2021/06/26 23:14:26;;;;;;;11.67;10.47;;;20.40;99.90;;;;;;10514264;28;20262;-81
2021/06/26 23:19:28;;;;;;;9.20;8.50;;;20.40;99.90;;;;;;10528517;28;20600;-80
2021/06/26 23:24:31;;;;;;;9.53;8.67;;;20.30;99.90;;;;;;10546760;28;20219;-80
2021/06/26 23:29:35;;;;;;;10.17;9.27;;;20.30;99.90;;;;;;10541834;28;20214;-80
2021/06/26 23:34:37;;;;;;;9.67;8.97;;;20.20;99.90;;;;;;10539575;28;20234;-79
2021/06/26 23:39:39;;;;;;;11.13;8.93;;;20.20;99.90;;;;;;10523971;28;20222;-81
2021/06/26 23:44:43;;;;;;;9.00;8.30;;;20.20;99.90;;;;;;10521781;28;20215;-79
2021/06/26 23:49:45;;;;;;;9.80;9.00;;;20.20;99.90;;;;;;10523510;28;20298;-80
2021/06/26 23:54:47;;;;;;;10.33;9.43;;;20.10;99.90;;;;;;10544846;28;20762;-81
2021/06/26 23:59:51;;;;;;;9.07;8.10;;;20.10;99.90;;;;;;10524540;28;20196;-80
